createdAt,value
2023-03-17T00:01:54.486Z,14.55
2023-03-17T00:04:22.901Z,11.70
2023-03-17T00:06:49.833Z,9.10
2023-03-17T00:09:18.245Z,13.45
2023-03-17T00:11:45.448Z,10.38
2023-03-17T00:14:12.467Z,11.38
2023-03-17T00:16:44.348Z,10.95
2023-03-17T00:19:29.074Z,15.43
2023-03-17T00:21:56.281Z,11.82
2023-03-17T00:24:23.395Z,11.20
2023-03-17T00:26:50.524Z,12.60
2023-03-17T00:29:17.532Z,9.80
2023-03-17T00:31:45.522Z,11.00
2023-03-17T00:34:14.545Z,10.00
2023-03-17T00:36:41.465Z,8.77
2023-03-17T00:41:41.175Z,11.77
2023-03-17T00:44:08.300Z,11.50
2023-03-17T00:46:38.606Z,8.35
2023-03-17T00:51:44.880Z,8.85
2023-03-17T00:54:12.214Z,12.50
2023-03-17T00:56:39.308Z,12.10
2023-03-17T00:59:12.391Z,10.85
2023-03-17T01:01:39.360Z,9.73
2023-03-17T01:04:06.662Z,11.20
2023-03-17T01:06:33.798Z,12.52
2023-03-17T01:09:01.704Z,9.00
2023-03-17T01:11:31.218Z,9.07
2023-03-17T01:13:58.928Z,12.45
2023-03-17T01:16:27.110Z,12.05
2023-03-17T01:18:54.706Z,11.57
2023-03-17T01:21:22.748Z,10.90
2023-03-17T01:23:49.940Z,9.13
2023-03-17T01:26:17.458Z,12.75
2023-03-17T01:28:44.420Z,12.73
2023-03-17T01:31:12.713Z,10.30
2023-03-17T01:33:39.652Z,10.02
2023-03-17T01:36:06.994Z,9.45
2023-03-17T01:38:33.948Z,10.13
2023-03-17T01:41:01.434Z,10.73
2023-03-17T01:43:29.557Z,11.05
2023-03-17T01:46:34.103Z,9.13
2023-03-17T01:49:04.663Z,10.57
2023-03-17T01:51:38.832Z,8.73
2023-03-17T01:54:12.032Z,9.75
2023-03-17T01:56:39.024Z,10.15
2023-03-17T01:59:06.955Z,10.07
2023-03-17T02:01:37.447Z,11.60
2023-03-17T02:04:05.203Z,12.20
2023-03-17T02:06:32.397Z,16.45
2023-03-17T02:08:59.336Z,10.32
2023-03-17T02:11:26.458Z,10.35
2023-03-17T02:13:53.625Z,10.48
2023-03-17T02:16:21.959Z,9.63
2023-03-17T02:18:48.857Z,12.77
2023-03-17T02:21:28.027Z,10.45
2023-03-17T02:23:56.255Z,8.77
2023-03-17T02:26:23.379Z,11.68
2023-03-17T02:28:50.449Z,9.60
2023-03-17T02:31:18.665Z,14.55
2023-03-17T02:33:46.050Z,10.13
2023-03-17T02:36:13.038Z,10.93
2023-03-17T02:38:40.047Z,10.82
2023-03-17T02:41:07.305Z,10.88
2023-03-17T02:43:34.734Z,9.35
2023-03-17T02:46:01.958Z,9.88
2023-03-17T02:48:28.895Z,11.13
2023-03-17T02:50:56.005Z,12.30
2023-03-17T02:53:22.925Z,15.00
2023-03-17T02:55:49.846Z,12.73
2023-03-17T02:58:16.746Z,10.95
2023-03-17T03:00:43.660Z,11.00
2023-03-17T03:03:10.570Z,12.60
2023-03-17T03:05:37.620Z,9.95
2023-03-17T03:08:04.722Z,10.75
2023-03-17T03:10:32.674Z,10.55
2023-03-17T03:12:59.687Z,10.13
2023-03-17T03:15:26.639Z,10.43
2023-03-17T03:17:53.660Z,14.20
2023-03-17T03:20:21.080Z,9.07
2023-03-17T03:22:48.080Z,11.13
2023-03-17T03:25:15.174Z,12.35
2023-03-17T03:27:42.081Z,12.20
2023-03-17T03:30:10.499Z,10.35
2023-03-17T03:32:37.857Z,16.98
2023-03-17T03:35:05.309Z,11.88
2023-03-17T03:37:32.280Z,14.15
2023-03-17T03:39:59.400Z,14.40
2023-03-17T03:42:26.767Z,12.07
2023-03-17T03:44:53.763Z,13.35
2023-03-17T03:47:20.982Z,12.45
2023-03-17T03:49:47.918Z,13.05
2023-03-17T03:52:14.950Z,12.80
2023-03-17T03:54:42.007Z,14.85
2023-03-17T03:57:09.059Z,14.77
2023-03-17T03:59:36.555Z,15.13
2023-03-17T04:02:03.608Z,13.35
2023-03-17T04:04:30.638Z,11.95
2023-03-17T04:06:57.673Z,13.07
2023-03-17T04:09:24.583Z,12.32
2023-03-17T04:11:52.082Z,14.15
2023-03-17T04:14:18.999Z,14.77
2023-03-17T04:16:45.944Z,15.90
2023-03-17T04:19:12.911Z,14.85
2023-03-17T04:21:39.875Z,14.82
2023-03-17T04:24:07.929Z,16.58
2023-03-17T04:26:34.877Z,14.73
2023-03-17T04:29:01.847Z,14.18
2023-03-17T04:31:28.866Z,12.80
2023-03-17T04:33:55.815Z,13.43
2023-03-17T04:36:23.237Z,12.60
2023-03-17T04:38:50.462Z,12.98
2023-03-17T04:41:17.430Z,12.52
2023-03-17T04:43:44.474Z,10.20
2023-03-17T04:46:11.908Z,11.80
2023-03-17T04:48:38.912Z,13.18
2023-03-17T04:51:06.403Z,9.23
2023-03-17T04:53:33.335Z,9.63
2023-03-17T04:56:00.248Z,9.85
2023-03-17T04:58:30.803Z,10.48
2023-03-17T05:00:58.483Z,10.80
2023-03-17T05:03:27.522Z,10.20
2023-03-17T05:05:55.601Z,9.60
2023-03-17T05:08:22.804Z,9.27
2023-03-17T05:10:51.295Z,7.60
2023-03-17T05:13:18.989Z,8.52
2023-03-17T05:15:49.648Z,10.10
2023-03-17T05:18:16.848Z,8.77
2023-03-17T05:20:43.906Z,7.72
2023-03-17T05:23:11.105Z,8.98
2023-03-17T05:25:38.662Z,9.05
2023-03-17T05:28:05.677Z,8.65
2023-03-17T05:30:33.031Z,8.20
2023-03-17T05:33:00.939Z,10.23
2023-03-17T05:35:28.166Z,9.25
2023-03-17T05:37:55.151Z,9.10
2023-03-17T05:40:24.000Z,9.85
2023-03-17T05:42:51.575Z,9.65
2023-03-17T05:45:18.731Z,10.55
2023-03-17T05:47:48.497Z,9.73
2023-03-17T05:50:15.637Z,10.70
2023-03-17T05:52:43.103Z,11.23
2023-03-17T05:55:10.303Z,11.10
2023-03-17T05:58:06.424Z,10.63
2023-03-17T06:00:56.904Z,11.75
2023-03-17T06:04:17.560Z,11.68
2023-03-17T06:06:54.932Z,12.60
2023-03-17T06:09:54.126Z,12.80
2023-03-17T06:12:44.554Z,11.48
2023-03-17T06:15:49.867Z,11.38
2023-03-17T06:18:25.670Z,12.32
2023-03-17T06:21:50.597Z,11.25
2023-03-17T06:24:22.443Z,12.93
2023-03-17T06:27:26.933Z,14.07
2023-03-17T06:30:27.242Z,12.38
2023-03-17T06:32:59.379Z,12.77
2023-03-17T06:36:01.491Z,13.23
2023-03-17T06:38:35.041Z,13.40
2023-03-17T06:41:32.107Z,15.38
2023-03-17T06:44:37.533Z,13.57
2023-03-17T06:47:53.477Z,14.10
2023-03-17T06:53:51.230Z,13.05
2023-03-17T06:56:30.034Z,14.85
2023-03-17T06:59:00.559Z,15.45
2023-03-17T07:01:27.795Z,14.15
2023-03-17T07:03:55.602Z,14.65
2023-03-17T07:06:23.451Z,14.55
2023-03-17T07:08:51.011Z,13.93
2023-03-17T07:11:18.372Z,13.68
2023-03-17T07:13:45.547Z,13.35
2023-03-17T07:16:14.029Z,13.85
2023-03-17T07:18:41.069Z,13.95
2023-03-17T07:21:08.250Z,13.50
2023-03-17T07:23:35.317Z,16.92
2023-03-17T07:26:02.663Z,14.70
2023-03-17T07:28:29.708Z,15.80
2023-03-17T07:30:58.154Z,14.32
2023-03-17T07:33:25.805Z,12.32
2023-03-17T07:35:54.224Z,14.93
2023-03-17T07:38:21.242Z,13.30
2023-03-17T07:40:49.033Z,14.05
2023-03-17T07:43:16.753Z,14.50
2023-03-17T07:45:47.046Z,14.77
2023-03-17T07:48:14.707Z,13.48
2023-03-17T07:50:42.408Z,13.30
2023-03-17T07:53:09.338Z,15.63
2023-03-17T07:55:38.232Z,14.60
2023-03-17T07:58:05.956Z,13.57
2023-03-17T08:00:34.803Z,11.80
2023-03-17T08:03:09.871Z,12.52
2023-03-17T08:05:37.655Z,13.88
2023-03-17T08:08:06.691Z,12.48
2023-03-17T08:10:34.194Z,12.88
2023-03-17T08:13:01.974Z,11.98
2023-03-17T08:15:30.820Z,11.45
2023-03-17T08:17:57.787Z,12.93
2023-03-17T08:20:24.760Z,12.48
2023-03-17T08:23:00.327Z,10.38
2023-03-17T08:25:27.672Z,11.13
2023-03-17T08:27:55.930Z,9.27
2023-03-17T08:30:23.304Z,9.70
2023-03-17T08:32:50.337Z,7.60
2023-03-17T08:35:18.585Z,9.82
2023-03-17T08:37:46.272Z,9.50
2023-03-17T08:40:13.979Z,9.50
2023-03-17T08:42:41.033Z,8.38
2023-03-17T08:45:10.082Z,7.80
2023-03-17T08:47:38.248Z,7.93
2023-03-17T08:50:08.587Z,8.95
2023-03-17T08:52:36.047Z,8.50
2023-03-17T08:55:03.419Z,8.35
2023-03-17T08:57:30.357Z,7.25
2023-03-17T08:59:57.288Z,8.25
2023-03-17T09:02:24.289Z,6.75
2023-03-17T09:04:51.304Z,7.22
2023-03-17T09:07:18.248Z,6.57
2023-03-17T09:09:45.764Z,6.60
2023-03-17T09:12:12.680Z,6.93
2023-03-17T09:14:44.183Z,6.70
2023-03-17T09:17:13.869Z,6.65
2023-03-17T09:19:41.649Z,6.30
2023-03-17T09:22:08.733Z,6.43
2023-03-17T09:24:35.768Z,6.47
2023-03-17T09:27:02.991Z,6.35
2023-03-17T09:29:30.103Z,7.15
2023-03-17T09:31:57.723Z,6.28
2023-03-17T09:34:25.206Z,7.18
2023-03-17T09:36:53.738Z,6.55
2023-03-17T09:39:23.166Z,7.15
2023-03-17T09:42:02.347Z,7.28
2023-03-17T09:44:53.606Z,6.30
2023-03-17T09:47:45.363Z,7.95
2023-03-17T09:50:22.763Z,6.28
2023-03-17T09:52:51.393Z,7.55
2023-03-17T09:55:29.857Z,7.10
2023-03-17T09:57:57.667Z,7.00
2023-03-17T10:00:33.808Z,6.07
2023-03-17T10:03:01.936Z,6.55
2023-03-17T10:05:35.108Z,7.80
2023-03-17T10:08:06.377Z,6.55
2023-03-17T10:10:56.915Z,7.80
2023-03-17T10:14:01.364Z,6.68
2023-03-17T10:16:55.663Z,6.68
2023-03-17T10:19:44.422Z,5.70
2023-03-17T10:22:14.322Z,6.63
2023-03-17T10:24:46.805Z,5.68
2023-03-17T10:27:13.790Z,6.03
2023-03-17T10:29:41.609Z,6.18
2023-03-17T10:32:11.156Z,5.88
2023-03-17T10:34:39.402Z,5.47
2023-03-17T10:37:09.503Z,5.50
2023-03-17T10:39:44.834Z,4.95
2023-03-17T10:42:24.704Z,6.43
2023-03-17T10:44:58.404Z,5.72
2023-03-17T10:47:26.513Z,6.30
2023-03-17T10:49:56.794Z,5.57
2023-03-17T10:52:27.645Z,5.47
2023-03-17T10:54:54.690Z,5.60
2023-03-17T10:57:22.184Z,5.30
2023-03-17T10:59:53.966Z,4.75
2023-03-17T11:02:27.476Z,5.75
2023-03-17T11:04:59.827Z,6.20
2023-03-17T11:07:31.309Z,7.15
2023-03-17T11:09:59.389Z,5.45
2023-03-17T11:12:34.951Z,5.38
2023-03-17T11:15:06.238Z,6.80
2023-03-17T11:17:36.084Z,5.88
2023-03-17T11:20:09.626Z,7.47
2023-03-17T11:22:46.752Z,7.28
2023-03-17T11:25:19.782Z,6.22
2023-03-17T11:28:01.457Z,7.93
2023-03-17T11:30:37.179Z,7.00
2023-03-17T11:33:36.623Z,5.68
2023-03-17T11:36:25.758Z,7.00
2023-03-17T11:39:05.871Z,7.70
2023-03-17T11:41:54.614Z,6.85
2023-03-17T11:44:47.877Z,5.60
2023-03-17T11:47:38.753Z,7.18
2023-03-17T11:50:12.272Z,6.30
2023-03-17T11:52:51.443Z,6.90
2023-03-17T11:55:31.378Z,6.05
2023-03-17T11:58:03.282Z,7.22
2023-03-17T12:00:38.299Z,6.13
2023-03-17T12:03:46.180Z,6.80
2023-03-17T12:06:38.596Z,6.30
2023-03-17T12:09:28.356Z,6.85
2023-03-17T12:11:55.955Z,8.13
2023-03-17T12:14:30.150Z,6.90
2023-03-17T12:17:25.118Z,7.30
2023-03-17T12:19:55.698Z,8.00
2023-03-17T12:22:28.351Z,7.05
2023-03-17T12:25:07.521Z,7.32
2023-03-17T12:27:38.952Z,8.07
2023-03-17T12:30:11.103Z,6.32
2023-03-17T12:32:41.891Z,6.88
2023-03-17T12:35:26.689Z,7.35
2023-03-17T12:37:54.364Z,6.35
2023-03-17T12:40:25.893Z,7.80
2023-03-17T12:43:04.121Z,8.80
2023-03-17T12:45:51.192Z,8.35
2023-03-17T12:48:50.244Z,7.50
2023-03-17T12:51:52.499Z,7.05
2023-03-17T12:54:27.268Z,7.47
2023-03-17T12:56:55.732Z,7.07
2023-03-17T12:59:24.498Z,5.38
2023-03-17T13:02:06.122Z,6.32
2023-03-17T13:04:36.164Z,6.78
2023-03-17T13:07:10.382Z,7.15
2023-03-17T13:09:54.639Z,7.28
2023-03-17T13:12:39.806Z,5.72
2023-03-17T13:15:42.390Z,5.95
2023-03-17T13:18:17.949Z,7.00
2023-03-17T13:21:00.341Z,6.38
2023-03-17T13:23:39.737Z,7.68
2023-03-17T13:26:06.974Z,6.07
2023-03-17T13:28:36.935Z,6.20
2023-03-17T13:31:27.664Z,6.00
2023-03-17T13:34:14.325Z,6.28
2023-03-17T13:36:57.948Z,5.70
2023-03-17T13:39:46.704Z,6.20
2023-03-17T13:42:22.903Z,6.35
2023-03-17T13:45:05.529Z,6.13
2023-03-17T13:47:34.895Z,6.22
2023-03-17T13:50:23.761Z,5.80
2023-03-17T13:53:01.793Z,6.65
2023-03-17T13:55:41.970Z,6.68
2023-03-17T13:58:11.405Z,5.57
2023-03-17T14:00:40.445Z,7.65
2023-03-17T14:03:11.177Z,6.47
2023-03-17T14:05:38.196Z,5.70
2023-03-17T14:08:27.031Z,8.40
2023-03-17T14:10:55.008Z,6.03
2023-03-17T14:13:27.976Z,6.47
2023-03-17T14:16:03.895Z,6.03
2023-03-17T14:18:33.608Z,5.97
2023-03-17T14:21:02.768Z,5.63
2023-03-17T14:23:30.254Z,5.00
2023-03-17T14:26:01.057Z,6.03
2023-03-17T14:28:30.129Z,5.95
2023-03-17T14:31:02.004Z,5.70
2023-03-17T14:33:33.699Z,4.90
2023-03-17T14:38:30.127Z,5.50
2023-03-17T14:41:00.894Z,4.63
2023-03-17T14:43:27.827Z,6.20
2023-03-17T14:46:05.574Z,5.95
2023-03-17T14:48:37.107Z,4.72
2023-03-17T14:51:09.900Z,5.38
2023-03-17T14:53:40.834Z,6.97
2023-03-17T14:56:07.812Z,5.97
2023-03-17T14:58:43.990Z,4.93
2023-03-17T15:01:33.755Z,5.43
2023-03-17T15:04:20.443Z,6.82
2023-03-17T15:06:52.547Z,6.38
2023-03-17T15:09:27.377Z,6.22
2023-03-17T15:12:03.670Z,5.03
2023-03-17T15:14:40.082Z,6.13
2023-03-17T15:17:21.412Z,5.88
2023-03-17T15:19:50.235Z,7.38
2023-03-17T15:22:43.483Z,6.22
2023-03-17T15:25:31.548Z,5.47
2023-03-17T15:27:58.591Z,6.32
2023-03-17T15:30:29.556Z,8.52
2023-03-17T15:33:00.904Z,6.75
2023-03-17T15:35:28.230Z,7.18
2023-03-17T15:37:55.601Z,6.53
2023-03-17T15:40:23.078Z,5.72
2023-03-17T15:42:50.035Z,7.32
2023-03-17T15:45:17.460Z,6.53
2023-03-17T15:47:45.264Z,5.05
2023-03-17T15:50:14.292Z,5.78
2023-03-17T15:52:41.319Z,6.18
2023-03-17T15:55:28.950Z,6.97
2023-03-17T15:57:56.796Z,5.72
2023-03-17T16:00:25.007Z,7.18
2023-03-17T16:02:54.069Z,9.35
2023-03-17T16:05:22.865Z,6.75
2023-03-17T16:07:50.625Z,8.75
2023-03-17T16:10:25.452Z,6.65
2023-03-17T16:12:52.704Z,7.95
2023-03-17T16:15:23.614Z,8.73
2023-03-17T16:17:55.420Z,7.50
2023-03-17T16:20:36.154Z,6.55
2023-03-17T16:23:24.272Z,8.88
2023-03-17T16:25:52.620Z,11.60
2023-03-17T16:28:22.745Z,7.47
2023-03-17T16:30:53.467Z,8.48
2023-03-17T16:33:21.823Z,6.70
2023-03-17T16:35:49.353Z,7.53
2023-03-17T16:38:18.052Z,8.43
2023-03-17T16:40:50.969Z,8.23
2023-03-17T16:43:25.569Z,8.15
2023-03-17T16:45:54.621Z,9.68
2023-03-17T16:48:21.537Z,8.63
2023-03-17T16:50:48.605Z,7.50
2023-03-17T16:53:15.546Z,8.98
2023-03-17T16:55:42.580Z,8.38
2023-03-17T16:58:32.545Z,7.65
2023-03-17T17:01:01.844Z,8.00
2023-03-17T17:03:29.752Z,7.78
2023-03-17T17:05:56.835Z,7.00
2023-03-17T17:08:23.977Z,8.20
2023-03-17T17:10:51.849Z,9.15
2023-03-17T17:13:18.835Z,8.25
2023-03-17T17:15:45.854Z,7.55
2023-03-17T17:18:24.618Z,10.77
2023-03-17T17:20:52.468Z,7.05
2023-03-17T17:23:24.689Z,7.05
2023-03-17T17:25:51.922Z,9.70
2023-03-17T17:28:22.378Z,10.82
2023-03-17T17:30:50.745Z,7.25
2023-03-17T17:33:18.038Z,7.47
2023-03-17T17:35:45.154Z,7.78
2023-03-17T17:38:17.548Z,7.95
2023-03-17T17:40:44.640Z,8.25
2023-03-17T17:43:11.682Z,7.18
2023-03-17T17:45:38.736Z,7.80
2023-03-17T17:48:06.166Z,11.52
2023-03-17T17:50:33.870Z,8.13
2023-03-17T17:53:05.587Z,7.35
2023-03-17T17:55:33.768Z,9.20
2023-03-17T17:58:00.979Z,10.02
2023-03-17T18:00:27.999Z,8.73
2023-03-17T18:02:55.049Z,8.35
2023-03-17T18:05:22.118Z,8.05
2023-03-17T18:07:49.115Z,8.77
2023-03-17T18:10:22.352Z,9.07
2023-03-17T18:12:49.391Z,9.25
2023-03-17T18:15:16.920Z,10.15
2023-03-17T18:17:44.180Z,8.85
2023-03-17T18:20:15.521Z,10.43
2023-03-17T18:22:42.549Z,10.15
2023-03-17T18:25:10.597Z,10.50
2023-03-17T18:27:38.508Z,8.80
2023-03-17T18:30:06.651Z,10.75
2023-03-17T18:32:33.821Z,9.02
2023-03-17T18:35:03.282Z,10.88
2023-03-17T18:37:31.128Z,7.97
2023-03-17T18:40:13.487Z,8.73
2023-03-17T18:42:42.346Z,10.85
2023-03-17T18:45:10.448Z,11.63
2023-03-17T18:47:39.124Z,10.32
2023-03-17T18:50:07.179Z,10.50
2023-03-17T18:52:35.692Z,9.18
2023-03-17T18:55:02.798Z,10.70
2023-03-17T18:57:29.860Z,12.00
2023-03-17T18:59:56.928Z,11.20
2023-03-17T19:02:24.003Z,12.65
2023-03-17T19:04:51.427Z,21.13
2023-03-17T19:07:18.620Z,14.18
2023-03-17T19:09:45.694Z,12.02
2023-03-17T19:12:13.570Z,12.05
2023-03-17T19:14:40.729Z,10.88
2023-03-17T19:17:07.753Z,10.60
2023-03-17T19:19:35.437Z,18.38
2023-03-17T19:22:02.580Z,13.40
2023-03-17T19:24:30.111Z,10.90
2023-03-17T19:26:57.058Z,10.38
2023-03-17T19:29:24.074Z,8.52
2023-03-17T19:31:51.034Z,12.02
2023-03-17T19:34:18.066Z,11.80
2023-03-17T19:36:46.648Z,10.98
2023-03-17T19:39:13.890Z,12.13
2023-03-17T19:41:40.897Z,11.73
2023-03-17T19:44:07.908Z,13.18
2023-03-17T19:46:36.176Z,10.85
2023-03-17T19:49:04.725Z,11.23
2023-03-17T19:51:31.960Z,11.02
2023-03-17T19:53:59.092Z,15.18
2023-03-17T19:56:27.851Z,11.45
2023-03-17T19:58:55.498Z,11.52
2023-03-17T20:01:23.087Z,11.43
2023-03-17T20:03:50.448Z,12.85
2023-03-17T20:06:17.498Z,22.13
2023-03-17T20:08:44.687Z,18.50
2023-03-17T20:11:12.100Z,19.67
2023-03-17T20:13:39.399Z,17.15
2023-03-17T20:16:07.060Z,15.45
2023-03-17T20:18:34.152Z,15.93
2023-03-17T20:21:05.377Z,14.07
2023-03-17T20:23:32.604Z,14.48
2023-03-17T20:25:59.932Z,14.30
2023-03-17T20:28:29.498Z,18.40
2023-03-17T20:31:00.262Z,17.30
2023-03-17T20:33:28.183Z,15.68
2023-03-17T20:35:55.378Z,14.70
2023-03-17T20:38:22.783Z,16.00
2023-03-17T20:40:50.028Z,13.98
2023-03-17T20:43:17.056Z,14.60
2023-03-17T20:45:44.081Z,16.70
2023-03-17T20:48:11.411Z,16.77
2023-03-17T20:50:39.130Z,16.13
2023-03-17T20:53:06.318Z,19.17
2023-03-17T20:55:33.316Z,15.90
2023-03-17T20:58:01.852Z,20.77
2023-03-17T21:00:30.157Z,17.25
2023-03-17T21:02:57.349Z,15.10
2023-03-17T21:05:25.556Z,19.23
2023-03-17T21:07:52.937Z,16.38
2023-03-17T21:10:20.654Z,17.15
2023-03-17T21:12:47.716Z,16.65
2023-03-17T21:15:14.814Z,17.83
2023-03-17T21:17:42.449Z,17.65
2023-03-17T21:20:11.425Z,18.73
2023-03-17T21:22:39.967Z,18.13
2023-03-17T21:25:08.849Z,15.15
2023-03-17T21:27:39.396Z,14.93
2023-03-17T21:30:08.921Z,16.98
2023-03-17T21:32:36.301Z,15.90
2023-03-17T21:35:03.551Z,15.25
2023-03-17T21:37:30.603Z,15.30
2023-03-17T21:39:58.194Z,13.63
2023-03-17T21:42:25.412Z,14.30
2023-03-17T21:44:52.515Z,13.27
2023-03-17T21:47:20.030Z,16.10
2023-03-17T21:49:47.066Z,13.90
2023-03-17T21:52:15.086Z,14.45
2023-03-17T21:54:42.246Z,14.38
2023-03-17T21:57:09.439Z,15.68
2023-03-17T21:59:37.041Z,12.88
2023-03-17T22:02:04.772Z,13.30
2023-03-17T22:04:31.779Z,14.35
2023-03-17T22:06:59.017Z,13.63
2023-03-17T22:09:26.238Z,12.57
2023-03-17T22:11:53.239Z,13.32
2023-03-17T22:14:20.863Z,11.02
2023-03-17T22:16:51.313Z,11.90
2023-03-17T22:19:20.997Z,13.45
2023-03-17T22:21:48.240Z,13.88
2023-03-17T22:24:15.798Z,13.90
2023-03-17T22:26:42.936Z,12.27
2023-03-17T22:29:10.173Z,12.80
2023-03-17T22:31:37.221Z,11.13
2023-03-17T22:34:04.352Z,11.10
2023-03-17T22:36:31.333Z,10.32
2023-03-17T22:38:58.656Z,12.40
2023-03-17T22:41:27.461Z,10.55
2023-03-17T22:43:54.416Z,13.65
2023-03-17T22:46:21.715Z,12.20
2023-03-17T22:48:48.818Z,14.82
2023-03-17T22:51:20.984Z,10.75
2023-03-17T22:53:48.304Z,11.27
2023-03-17T22:56:16.447Z,13.13
2023-03-17T22:58:43.776Z,14.00
2023-03-17T23:01:12.354Z,12.40
2023-03-17T23:03:39.471Z,12.82
2023-03-17T23:06:07.116Z,11.95
2023-03-17T23:08:35.454Z,11.07
2023-03-17T23:11:05.737Z,11.38
2023-03-17T23:13:32.741Z,10.38
2023-03-17T23:15:59.936Z,11.95
2023-03-17T23:18:27.085Z,9.80
2023-03-17T23:20:54.109Z,10.48
2023-03-17T23:23:21.123Z,11.07
2023-03-17T23:25:48.100Z,11.40
2023-03-17T23:28:15.784Z,9.43
2023-03-17T23:30:43.589Z,9.95
2023-03-17T23:33:13.679Z,13.90
2023-03-17T23:35:40.884Z,13.40
2023-03-17T23:38:08.757Z,14.48
2023-03-17T23:40:36.133Z,10.65
2023-03-17T23:43:05.544Z,10.63
2023-03-17T23:45:34.371Z,11.52
2023-03-17T23:48:01.821Z,12.45
2023-03-17T23:50:28.864Z,12.32
2023-03-17T23:52:55.852Z,12.88
2023-03-17T23:55:23.237Z,12.18
2023-03-17T23:57:50.699Z,13.23
